Archival Weather

Chicago O'Hare International

Chicago, Illinois (KORD)

Report from: Saturday, August 6, 2022 5:51 AM CDT
Current time: Tuesday, August 16, 2022 2:25 AM CDT

Current weather
Weather history
Weather forecast

Temperature23.3°C (73.9°F)
Dew point21.1°C (70.0°F)
Winds 3 kts (1.5 m/s, 3.5 mph) South (190°)
Visibility10 mi. (16.1 km)
Clouds Few clouds 25,000 ft. (7,620 m)
Altimeter30.07 in.Hg (1018 mB)
Relative humidity87 %
Density altitude1,133 ft. (345 m)
Sea-level pressure101.8 kPa (1018 mB, 30.06 in.Hg)
Remarks Automated weather observing station with precipitation discriminator
Flight conditions Visual Meteorological Conditions
Raw dataKORD 061051Z 19003KT 10SM FEW250 23/21 A3007 RMK AO2 SLP178 T02330211
An error has occurred. This application may no longer respond until reloaded. Reload 🗙